sensor_id;sensor_type;location;lat;lon;timestamp;P1;durP1;ratioP1;P2;durP2;ratioP2
3343;SDS011;1685;53.104;8.228;2023-01-16T00:01:41;3.27;;;2.63;;
3343;SDS011;1685;53.104;8.228;2023-01-16T00:04:08;3.77;;;2.80;;
3343;SDS011;1685;53.104;8.228;2023-01-16T00:06:35;5.93;;;2.40;;
3343;SDS011;1685;53.104;8.228;2023-01-16T00:09:02;11.53;;;2.50;;
3343;SDS011;1685;53.104;8.228;2023-01-16T00:11:31;2.57;;;2.43;;
3343;SDS011;1685;53.104;8.228;2023-01-16T00:13:58;5.20;;;2.80;;
3343;SDS011;1685;53.104;8.228;2023-01-16T00:16:25;2.47;;;2.27;;
3343;SDS011;1685;53.104;8.228;2023-01-16T00:18:52;3.57;;;2.60;;
3343;SDS011;1685;53.104;8.228;2023-01-16T00:21:19;9.53;;;2.53;;
3343;SDS011;1685;53.104;8.228;2023-01-16T00:23:49;2.97;;;2.57;;
3343;SDS011;1685;53.104;8.228;2023-01-16T00:26:16;4.37;;;2.33;;
3343;SDS011;1685;53.104;8.228;2023-01-16T00:28:45;1.87;;;1.77;;
3343;SDS011;1685;53.104;8.228;2023-01-16T00:31:11;2.97;;;2.60;;
3343;SDS011;1685;53.104;8.228;2023-01-16T00:33:39;3.80;;;3.10;;
3343;SDS011;1685;53.104;8.228;2023-01-16T00:36:07;2.80;;;2.60;;
3343;SDS011;1685;53.104;8.228;2023-01-16T00:38:34;2.80;;;2.70;;
3343;SDS011;1685;53.104;8.228;2023-01-16T00:41:01;5.37;;;2.43;;
3343;SDS011;1685;53.104;8.228;2023-01-16T00:43:28;3.70;;;2.50;;
3343;SDS011;1685;53.104;8.228;2023-01-16T00:45:57;2.50;;;2.37;;
3343;SDS011;1685;53.104;8.228;2023-01-16T00:48:24;5.63;;;2.97;;
3343;SDS011;1685;53.104;8.228;2023-01-16T00:50:51;6.77;;;2.87;;
3343;SDS011;1685;53.104;8.228;2023-01-16T00:53:18;5.87;;;2.50;;
3343;SDS011;1685;53.104;8.228;2023-01-16T00:55:45;2.23;;;2.13;;
3343;SDS011;1685;53.104;8.228;2023-01-16T00:58:12;2.90;;;2.37;;
3343;SDS011;1685;53.104;8.228;2023-01-16T01:00:39;2.83;;;2.33;;
3343;SDS011;1685;53.104;8.228;2023-01-16T01:03:07;2.87;;;2.60;;
3343;SDS011;1685;53.104;8.228;2023-01-16T01:05:35;5.47;;;2.67;;
3343;SDS011;1685;53.104;8.228;2023-01-16T01:08:03;5.33;;;2.30;;
3343;SDS011;1685;53.104;8.228;2023-01-16T01:10:30;6.60;;;4.70;;
3343;SDS011;1685;53.104;8.228;2023-01-16T01:12:57;3.93;;;2.67;;
3343;SDS011;1685;53.104;8.228;2023-01-16T01:15:24;3.53;;;2.70;;
3343;SDS011;1685;53.104;8.228;2023-01-16T01:17:51;5.90;;;2.80;;
3343;SDS011;1685;53.104;8.228;2023-01-16T01:20:20;2.90;;;2.67;;
3343;SDS011;1685;53.104;8.228;2023-01-16T01:22:46;3.00;;;2.10;;
3343;SDS011;1685;53.104;8.228;2023-01-16T01:25:13;5.93;;;1.93;;
3343;SDS011;1685;53.104;8.228;2023-01-16T01:27:41;8.37;;;2.20;;
3343;SDS011;1685;53.104;8.228;2023-01-16T01:30:08;3.53;;;2.20;;
3343;SDS011;1685;53.104;8.228;2023-01-16T01:32:35;9.43;;;3.30;;
3343;SDS011;1685;53.104;8.228;2023-01-16T01:35:03;8.03;;;2.80;;
3343;SDS011;1685;53.104;8.228;2023-01-16T01:37:32;5.43;;;3.23;;
3343;SDS011;1685;53.104;8.228;2023-01-16T01:40:00;3.77;;;2.30;;
3343;SDS011;1685;53.104;8.228;2023-01-16T01:42:27;4.70;;;2.60;;
3343;SDS011;1685;53.104;8.228;2023-01-16T01:45:14;6.07;;;2.60;;
3343;SDS011;1685;53.104;8.228;2023-01-16T01:47:44;4.37;;;2.10;;
3343;SDS011;1685;53.104;8.228;2023-01-16T01:50:18;4.33;;;2.43;;
3343;SDS011;1685;53.104;8.228;2023-01-16T01:52:51;8.03;;;2.57;;
3343;SDS011;1685;53.104;8.228;2023-01-16T01:55:19;3.47;;;2.20;;
3343;SDS011;1685;53.104;8.228;2023-01-16T01:57:49;3.30;;;2.37;;
3343;SDS011;1685;53.104;8.228;2023-01-16T02:00:21;3.93;;;2.43;;
3343;SDS011;1685;53.104;8.228;2023-01-16T02:02:51;2.13;;;1.80;;
3343;SDS011;1685;53.104;8.228;2023-01-16T02:05:22;2.57;;;2.07;;
3343;SDS011;1685;53.104;8.228;2023-01-16T02:07:52;3.03;;;2.67;;
3343;SDS011;1685;53.104;8.228;2023-01-16T02:10:22;6.43;;;2.77;;
3343;SDS011;1685;53.104;8.228;2023-01-16T02:12:55;3.07;;;1.87;;
3343;SDS011;1685;53.104;8.228;2023-01-16T02:15:22;2.37;;;2.17;;
3343;SDS011;1685;53.104;8.228;2023-01-16T02:17:49;5.50;;;2.33;;
3343;SDS011;1685;53.104;8.228;2023-01-16T02:20:37;3.60;;;3.03;;
3343;SDS011;1685;53.104;8.228;2023-01-16T02:26:39;6.47;;;2.57;;
3343;SDS011;1685;53.104;8.228;2023-01-16T02:29:42;5.27;;;2.33;;
3343;SDS011;1685;53.104;8.228;2023-01-16T02:32:46;5.17;;;2.80;;
3343;SDS011;1685;53.104;8.228;2023-01-16T02:35:29;5.57;;;2.93;;
3343;SDS011;1685;53.104;8.228;2023-01-16T02:38:15;3.40;;;2.40;;
3343;SDS011;1685;53.104;8.228;2023-01-16T02:40:48;8.23;;;3.17;;
3343;SDS011;1685;53.104;8.228;2023-01-16T02:43:25;3.33;;;2.77;;
3343;SDS011;1685;53.104;8.228;2023-01-16T02:46:04;7.53;;;2.30;;
3343;SDS011;1685;53.104;8.228;2023-01-16T02:48:40;2.80;;;2.53;;
3343;SDS011;1685;53.104;8.228;2023-01-16T02:51:17;3.97;;;2.93;;
3343;SDS011;1685;53.104;8.228;2023-01-16T02:53:52;9.40;;;3.50;;
3343;SDS011;1685;53.104;8.228;2023-01-16T02:56:26;5.93;;;3.20;;
3343;SDS011;1685;53.104;8.228;2023-01-16T02:58:57;3.10;;;2.80;;
3343;SDS011;1685;53.104;8.228;2023-01-16T03:01:24;5.07;;;4.63;;
3343;SDS011;1685;53.104;8.228;2023-01-16T03:04:03;5.17;;;3.07;;
3343;SDS011;1685;53.104;8.228;2023-01-16T03:06:33;3.60;;;2.80;;
3343;SDS011;1685;53.104;8.228;2023-01-16T03:09:15;9.73;;;3.23;;
3343;SDS011;1685;53.104;8.228;2023-01-16T03:11:57;10.03;;;3.50;;
3343;SDS011;1685;53.104;8.228;2023-01-16T03:14:35;7.50;;;3.47;;
3343;SDS011;1685;53.104;8.228;2023-01-16T03:17:14;5.20;;;3.40;;
3343;SDS011;1685;53.104;8.228;2023-01-16T03:19:56;6.80;;;3.00;;
3343;SDS011;1685;53.104;8.228;2023-01-16T03:22:37;5.20;;;3.00;;
3343;SDS011;1685;53.104;8.228;2023-01-16T03:25:10;5.93;;;2.60;;
3343;SDS011;1685;53.104;8.228;2023-01-16T03:27:52;9.47;;;3.70;;
3343;SDS011;1685;53.104;8.228;2023-01-16T03:30:25;5.30;;;3.27;;
3343;SDS011;1685;53.104;8.228;2023-01-16T03:32:56;3.93;;;3.20;;
3343;SDS011;1685;53.104;8.228;2023-01-16T03:35:32;5.37;;;3.30;;
3343;SDS011;1685;53.104;8.228;2023-01-16T03:38:01;5.83;;;3.93;;
3343;SDS011;1685;53.104;8.228;2023-01-16T03:40:31;7.77;;;4.00;;
3343;SDS011;1685;53.104;8.228;2023-01-16T03:43:03;4.10;;;3.50;;
3343;SDS011;1685;53.104;8.228;2023-01-16T03:45:36;6.80;;;3.63;;
3343;SDS011;1685;53.104;8.228;2023-01-16T03:48:08;6.57;;;3.47;;
3343;SDS011;1685;53.104;8.228;2023-01-16T03:50:40;10.13;;;4.27;;
3343;SDS011;1685;53.104;8.228;2023-01-16T03:53:10;4.80;;;3.77;;
3343;SDS011;1685;53.104;8.228;2023-01-16T03:55:41;3.93;;;3.37;;
3343;SDS011;1685;53.104;8.228;2023-01-16T03:58:13;4.13;;;3.70;;
3343;SDS011;1685;53.104;8.228;2023-01-16T04:00:47;4.77;;;3.87;;
3343;SDS011;1685;53.104;8.228;2023-01-16T04:03:19;4.97;;;3.67;;
3343;SDS011;1685;53.104;8.228;2023-01-16T04:05:54;4.13;;;3.67;;
3343;SDS011;1685;53.104;8.228;2023-01-16T04:08:27;4.87;;;4.47;;
3343;SDS011;1685;53.104;8.228;2023-01-16T04:10:59;4.10;;;3.80;;
3343;SDS011;1685;53.104;8.228;2023-01-16T04:13:27;4.10;;;3.80;;
3343;SDS011;1685;53.104;8.228;2023-01-16T04:15:58;4.30;;;4.00;;
3343;SDS011;1685;53.104;8.228;2023-01-16T04:18:28;6.10;;;3.63;;
3343;SDS011;1685;53.104;8.228;2023-01-16T04:20:59;4.50;;;4.20;;
3343;SDS011;1685;53.104;8.228;2023-01-16T04:23:25;7.17;;;3.53;;
3343;SDS011;1685;53.104;8.228;2023-01-16T04:25:53;5.37;;;4.23;;
3343;SDS011;1685;53.104;8.228;2023-01-16T04:28:20;4.87;;;3.93;;
3343;SDS011;1685;53.104;8.228;2023-01-16T04:30:47;4.50;;;4.10;;
3343;SDS011;1685;53.104;8.228;2023-01-16T04:33:14;4.17;;;3.47;;
3343;SDS011;1685;53.104;8.228;2023-01-16T04:35:41;5.30;;;4.03;;
3343;SDS011;1685;53.104;8.228;2023-01-16T04:38:09;8.33;;;4.03;;
3343;SDS011;1685;53.104;8.228;2023-01-16T04:40:37;8.23;;;4.53;;
3343;SDS011;1685;53.104;8.228;2023-01-16T04:43:04;8.10;;;4.77;;
3343;SDS011;1685;53.104;8.228;2023-01-16T04:45:31;7.70;;;3.70;;
3343;SDS011;1685;53.104;8.228;2023-01-16T04:47:58;5.77;;;4.00;;
3343;SDS011;1685;53.104;8.228;2023-01-16T04:50:25;9.30;;;4.00;;
3343;SDS011;1685;53.104;8.228;2023-01-16T04:52:52;5.67;;;4.40;;
3343;SDS011;1685;53.104;8.228;2023-01-16T04:55:20;5.03;;;4.53;;
3343;SDS011;1685;53.104;8.228;2023-01-16T04:57:47;4.70;;;4.27;;
3343;SDS011;1685;53.104;8.228;2023-01-16T05:00:14;4.50;;;4.10;;
3343;SDS011;1685;53.104;8.228;2023-01-16T05:02:41;4.40;;;3.90;;
3343;SDS011;1685;53.104;8.228;2023-01-16T05:05:08;4.90;;;4.33;;
3343;SDS011;1685;53.104;8.228;2023-01-16T05:07:35;6.63;;;5.00;;
3343;SDS011;1685;53.104;8.228;2023-01-16T05:10:03;8.30;;;4.40;;
3343;SDS011;1685;53.104;8.228;2023-01-16T05:12:31;4.77;;;4.47;;
3343;SDS011;1685;53.104;8.228;2023-01-16T05:14:58;5.43;;;4.53;;
3343;SDS011;1685;53.104;8.228;2023-01-16T05:17:25;5.60;;;4.10;;
3343;SDS011;1685;53.104;8.228;2023-01-16T05:19:52;5.30;;;4.80;;
3343;SDS011;1685;53.104;8.228;2023-01-16T05:22:19;5.87;;;4.20;;
3343;SDS011;1685;53.104;8.228;2023-01-16T05:24:46;5.50;;;4.03;;
3343;SDS011;1685;53.104;8.228;2023-01-16T05:27:13;5.60;;;4.50;;
3343;SDS011;1685;53.104;8.228;2023-01-16T05:29:41;5.47;;;4.97;;
3343;SDS011;1685;53.104;8.228;2023-01-16T05:32:08;5.80;;;4.60;;
3343;SDS011;1685;53.104;8.228;2023-01-16T05:34:35;5.43;;;4.80;;
3343;SDS011;1685;53.104;8.228;2023-01-16T05:37:02;5.23;;;4.70;;
3343;SDS011;1685;53.104;8.228;2023-01-16T05:39:29;6.63;;;4.90;;
3343;SDS011;1685;53.104;8.228;2023-01-16T05:41:56;8.67;;;4.87;;
3343;SDS011;1685;53.104;8.228;2023-01-16T05:44:23;5.80;;;5.30;;
3343;SDS011;1685;53.104;8.228;2023-01-16T05:46:52;5.97;;;5.37;;
3343;SDS011;1685;53.104;8.228;2023-01-16T05:49:18;6.00;;;5.40;;
3343;SDS011;1685;53.104;8.228;2023-01-16T05:51:45;13.93;;;5.70;;
3343;SDS011;1685;53.104;8.228;2023-01-16T05:54:12;8.17;;;5.33;;
3343;SDS011;1685;53.104;8.228;2023-01-16T05:56:39;6.33;;;5.47;;
3343;SDS011;1685;53.104;8.228;2023-01-16T05:59:08;5.77;;;5.20;;
3343;SDS011;1685;53.104;8.228;2023-01-16T06:01:35;6.40;;;5.80;;
3343;SDS011;1685;53.104;8.228;2023-01-16T06:04:03;5.30;;;4.80;;
3343;SDS011;1685;53.104;8.228;2023-01-16T06:06:30;5.13;;;4.70;;
3343;SDS011;1685;53.104;8.228;2023-01-16T06:08:57;5.17;;;4.63;;
3343;SDS011;1685;53.104;8.228;2023-01-16T06:11:24;5.80;;;5.20;;
3343;SDS011;1685;53.104;8.228;2023-01-16T06:13:51;4.90;;;4.50;;
3343;SDS011;1685;53.104;8.228;2023-01-16T06:16:18;4.93;;;4.33;;
3343;SDS011;1685;53.104;8.228;2023-01-16T06:18:47;5.80;;;4.97;;
3343;SDS011;1685;53.104;8.228;2023-01-16T06:21:16;5.60;;;5.17;;
3343;SDS011;1685;53.104;8.228;2023-01-16T06:23:42;5.43;;;5.00;;
3343;SDS011;1685;53.104;8.228;2023-01-16T06:26:09;5.57;;;5.10;;
3343;SDS011;1685;53.104;8.228;2023-01-16T06:28:36;4.87;;;4.47;;
3343;SDS011;1685;53.104;8.228;2023-01-16T06:31:04;5.47;;;5.07;;
3343;SDS011;1685;53.104;8.228;2023-01-16T06:33:31;9.50;;;4.77;;
3343;SDS011;1685;53.104;8.228;2023-01-16T06:35:58;5.60;;;5.10;;
3343;SDS011;1685;53.104;8.228;2023-01-16T06:38:26;5.33;;;4.80;;
3343;SDS011;1685;53.104;8.228;2023-01-16T06:40:53;7.93;;;5.50;;
3343;SDS011;1685;53.104;8.228;2023-01-16T06:43:21;7.10;;;4.60;;
3343;SDS011;1685;53.104;8.228;2023-01-16T06:45:48;4.30;;;3.90;;
3343;SDS011;1685;53.104;8.228;2023-01-16T06:48:15;3.80;;;3.60;;
3343;SDS011;1685;53.104;8.228;2023-01-16T06:50:42;6.20;;;4.63;;
3343;SDS011;1685;53.104;8.228;2023-01-16T06:53:10;5.10;;;4.67;;
3343;SDS011;1685;53.104;8.228;2023-01-16T06:55:38;5.13;;;4.40;;
3343;SDS011;1685;53.104;8.228;2023-01-16T06:58:06;3.93;;;3.43;;
3343;SDS011;1685;53.104;8.228;2023-01-16T07:00:33;4.73;;;4.30;;
3343;SDS011;1685;53.104;8.228;2023-01-16T07:03:01;5.23;;;4.60;;
3343;SDS011;1685;53.104;8.228;2023-01-16T07:05:29;4.87;;;4.37;;
3343;SDS011;1685;53.104;8.228;2023-01-16T07:07:56;6.07;;;4.23;;
3343;SDS011;1685;53.104;8.228;2023-01-16T07:10:24;6.03;;;5.13;;
3343;SDS011;1685;53.104;8.228;2023-01-16T07:12:52;4.97;;;4.40;;
3343;SDS011;1685;53.104;8.228;2023-01-16T07:15:20;6.27;;;4.90;;
3343;SDS011;1685;53.104;8.228;2023-01-16T07:18:05;5.40;;;4.97;;
3343;SDS011;1685;53.104;8.228;2023-01-16T07:20:50;7.03;;;5.67;;
3343;SDS011;1685;53.104;8.228;2023-01-16T07:23:37;6.40;;;5.80;;
3343;SDS011;1685;53.104;8.228;2023-01-16T07:26:06;5.63;;;5.10;;
3343;SDS011;1685;53.104;8.228;2023-01-16T07:28:35;5.87;;;5.27;;
3343;SDS011;1685;53.104;8.228;2023-01-16T07:31:02;6.63;;;5.90;;
3343;SDS011;1685;53.104;8.228;2023-01-16T07:33:30;6.97;;;6.23;;
3343;SDS011;1685;53.104;8.228;2023-01-16T07:35:57;7.93;;;6.00;;
3343;SDS011;1685;53.104;8.228;2023-01-16T07:38:24;11.63;;;6.20;;
3343;SDS011;1685;53.104;8.228;2023-01-16T07:40:51;6.00;;;5.50;;
3343;SDS011;1685;53.104;8.228;2023-01-16T07:43:18;6.87;;;6.13;;
3343;SDS011;1685;53.104;8.228;2023-01-16T07:45:47;7.40;;;6.47;;
3343;SDS011;1685;53.104;8.228;2023-01-16T07:48:17;7.53;;;6.57;;
3343;SDS011;1685;53.104;8.228;2023-01-16T07:50:48;9.60;;;7.33;;
3343;SDS011;1685;53.104;8.228;2023-01-16T07:53:16;7.10;;;6.20;;
3343;SDS011;1685;53.104;8.228;2023-01-16T07:55:46;5.83;;;5.33;;
3343;SDS011;1685;53.104;8.228;2023-01-16T07:58:13;8.30;;;6.90;;
3343;SDS011;1685;53.104;8.228;2023-01-16T08:00:40;6.77;;;6.00;;
3343;SDS011;1685;53.104;8.228;2023-01-16T08:03:08;9.10;;;6.30;;
3343;SDS011;1685;53.104;8.228;2023-01-16T08:05:36;9.57;;;6.20;;
3343;SDS011;1685;53.104;8.228;2023-01-16T08:08:03;10.37;;;5.60;;
3343;SDS011;1685;53.104;8.228;2023-01-16T08:10:30;10.20;;;6.17;;
3343;SDS011;1685;53.104;8.228;2023-01-16T08:12:57;6.43;;;5.77;;
3343;SDS011;1685;53.104;8.228;2023-01-16T08:15:24;6.00;;;5.40;;
3343;SDS011;1685;53.104;8.228;2023-01-16T08:17:51;10.83;;;6.57;;
3343;SDS011;1685;53.104;8.228;2023-01-16T08:20:19;5.60;;;5.03;;
3343;SDS011;1685;53.104;8.228;2023-01-16T08:22:48;8.60;;;5.90;;
3343;SDS011;1685;53.104;8.228;2023-01-16T08:25:16;9.07;;;5.30;;
3343;SDS011;1685;53.104;8.228;2023-01-16T08:27:44;7.80;;;4.93;;
3343;SDS011;1685;53.104;8.228;2023-01-16T08:30:11;8.27;;;4.70;;
3343;SDS011;1685;53.104;8.228;2023-01-16T08:32:39;7.90;;;4.97;;
3343;SDS011;1685;53.104;8.228;2023-01-16T08:35:06;4.60;;;4.30;;
3343;SDS011;1685;53.104;8.228;2023-01-16T08:37:36;7.00;;;3.90;;
3343;SDS011;1685;53.104;8.228;2023-01-16T08:40:03;6.60;;;3.93;;
3343;SDS011;1685;53.104;8.228;2023-01-16T08:42:30;4.33;;;3.27;;
3343;SDS011;1685;53.104;8.228;2023-01-16T08:45:15;8.77;;;3.33;;
3343;SDS011;1685;53.104;8.228;2023-01-16T08:48:08;5.67;;;3.47;;
3343;SDS011;1685;53.104;8.228;2023-01-16T08:50:53;4.43;;;2.80;;
3343;SDS011;1685;53.104;8.228;2023-01-16T08:53:41;3.97;;;2.97;;
3343;SDS011;1685;53.104;8.228;2023-01-16T08:56:08;3.47;;;2.70;;
3343;SDS011;1685;53.104;8.228;2023-01-16T08:58:35;3.43;;;2.47;;
3343;SDS011;1685;53.104;8.228;2023-01-16T09:01:02;5.73;;;2.87;;
3343;SDS011;1685;53.104;8.228;2023-01-16T09:03:29;2.80;;;2.60;;
3343;SDS011;1685;53.104;8.228;2023-01-16T09:05:56;5.73;;;2.40;;
3343;SDS011;1685;53.104;8.228;2023-01-16T09:08:23;2.50;;;2.30;;
3343;SDS011;1685;53.104;8.228;2023-01-16T09:10:51;2.07;;;1.97;;
3343;SDS011;1685;53.104;8.228;2023-01-16T09:13:35;5.95;;;2.05;;
3343;SDS011;1685;53.104;8.228;2023-01-16T09:16:15;2.90;;;2.43;;
3343;SDS011;1685;53.104;8.228;2023-01-16T09:18:42;5.40;;;2.23;;
3343;SDS011;1685;53.104;8.228;2023-01-16T09:21:09;4.57;;;2.40;;
3343;SDS011;1685;53.104;8.228;2023-01-16T09:23:36;2.33;;;2.00;;
3343;SDS011;1685;53.104;8.228;2023-01-16T09:26:04;2.27;;;2.07;;
3343;SDS011;1685;53.104;8.228;2023-01-16T09:28:31;4.70;;;2.00;;
3343;SDS011;1685;53.104;8.228;2023-01-16T09:30:58;2.23;;;2.00;;
3343;SDS011;1685;53.104;8.228;2023-01-16T09:33:25;2.10;;;2.00;;
3343;SDS011;1685;53.104;8.228;2023-01-16T09:35:53;5.27;;;2.10;;
3343;SDS011;1685;53.104;8.228;2023-01-16T09:38:20;2.73;;;1.80;;
3343;SDS011;1685;53.104;8.228;2023-01-16T09:40:47;4.37;;;3.03;;
3343;SDS011;1685;53.104;8.228;2023-01-16T09:43:27;2.93;;;1.90;;
3343;SDS011;1685;53.104;8.228;2023-01-16T09:46:01;2.17;;;2.00;;
3343;SDS011;1685;53.104;8.228;2023-01-16T09:48:32;2.00;;;1.70;;
3343;SDS011;1685;53.104;8.228;2023-01-16T09:51:02;3.27;;;2.80;;
3343;SDS011;1685;53.104;8.228;2023-01-16T09:53:36;2.30;;;2.20;;
3343;SDS011;1685;53.104;8.228;2023-01-16T09:56:27;1.70;;;1.60;;
3343;SDS011;1685;53.104;8.228;2023-01-16T09:59:19;1.60;;;1.50;;
3343;SDS011;1685;53.104;8.228;2023-01-16T10:01:52;1.60;;;1.50;;
3343;SDS011;1685;53.104;8.228;2023-01-16T10:04:23;1.67;;;1.57;;
3343;SDS011;1685;53.104;8.228;2023-01-16T10:06:53;1.20;;;1.20;;
3343;SDS011;1685;53.104;8.228;2023-01-16T10:09:35;4.20;;;1.90;;
3343;SDS011;1685;53.104;8.228;2023-01-16T10:12:08;1.80;;;1.70;;
3343;SDS011;1685;53.104;8.228;2023-01-16T10:14:43;2.27;;;1.70;;
3343;SDS011;1685;53.104;8.228;2023-01-16T10:17:20;1.73;;;1.63;;
3343;SDS011;1685;53.104;8.228;2023-01-16T10:20:01;3.80;;;1.73;;
3343;SDS011;1685;53.104;8.228;2023-01-16T10:22:44;4.20;;;2.00;;
3343;SDS011;1685;53.104;8.228;2023-01-16T10:25:20;1.83;;;1.57;;
3343;SDS011;1685;53.104;8.228;2023-01-16T10:27:54;5.10;;;1.80;;
3343;SDS011;1685;53.104;8.228;2023-01-16T10:30:32;2.00;;;1.77;;
3343;SDS011;1685;53.104;8.228;2023-01-16T10:33:03;2.50;;;1.70;;
3343;SDS011;1685;53.104;8.228;2023-01-16T10:35:37;2.77;;;1.73;;
3343;SDS011;1685;53.104;8.228;2023-01-16T10:38:12;1.80;;;1.73;;
3343;SDS011;1685;53.104;8.228;2023-01-16T10:40:46;2.00;;;1.90;;
3343;SDS011;1685;53.104;8.228;2023-01-16T10:43:16;2.00;;;1.70;;
3343;SDS011;1685;53.104;8.228;2023-01-16T10:46:10;3.37;;;2.00;;
3343;SDS011;1685;53.104;8.228;2023-01-16T10:48:57;2.07;;;1.83;;
3343;SDS011;1685;53.104;8.228;2023-01-16T10:51:42;1.90;;;1.15;;
3343;SDS011;1685;53.104;8.228;2023-01-16T10:54:09;2.50;;;1.93;;
3343;SDS011;1685;53.104;8.228;2023-01-16T10:56:36;2.00;;;1.90;;
3343;SDS011;1685;53.104;8.228;2023-01-16T10:59:04;1.70;;;1.60;;
3343;SDS011;1685;53.104;8.228;2023-01-16T11:01:32;2.20;;;2.00;;
3343;SDS011;1685;53.104;8.228;2023-01-16T11:03:59;2.33;;;2.13;;
3343;SDS011;1685;53.104;8.228;2023-01-16T11:06:27;2.30;;;2.00;;
3343;SDS011;1685;53.104;8.228;2023-01-16T11:08:59;2.10;;;2.00;;
3343;SDS011;1685;53.104;8.228;2023-01-16T11:11:27;3.53;;;2.37;;
3343;SDS011;1685;53.104;8.228;2023-01-16T11:14:14;3.33;;;2.23;;
3343;SDS011;1685;53.104;8.228;2023-01-16T11:20:12;3.27;;;2.37;;
3343;SDS011;1685;53.104;8.228;2023-01-16T11:22:42;2.40;;;2.20;;
3343;SDS011;1685;53.104;8.228;2023-01-16T11:25:14;5.83;;;1.90;;
3343;SDS011;1685;53.104;8.228;2023-01-16T11:27:45;5.80;;;2.77;;
3343;SDS011;1685;53.104;8.228;2023-01-16T11:30:15;2.30;;;2.10;;
3343;SDS011;1685;53.104;8.228;2023-01-16T11:32:46;2.20;;;2.00;;
3343;SDS011;1685;53.104;8.228;2023-01-16T11:35:15;5.60;;;2.43;;
3343;SDS011;1685;53.104;8.228;2023-01-16T11:37:44;2.43;;;2.23;;
3343;SDS011;1685;53.104;8.228;2023-01-16T11:40:16;11.03;;;2.27;;
3343;SDS011;1685;53.104;8.228;2023-01-16T11:42:52;4.93;;;2.03;;
3343;SDS011;1685;53.104;8.228;2023-01-16T11:45:42;5.83;;;2.20;;
3343;SDS011;1685;53.104;8.228;2023-01-16T11:48:40;3.73;;;2.50;;
3343;SDS011;1685;53.104;8.228;2023-01-16T11:51:11;2.50;;;2.30;;
3343;SDS011;1685;53.104;8.228;2023-01-16T11:53:39;9.03;;;3.13;;
3343;SDS011;1685;53.104;8.228;2023-01-16T11:56:09;2.03;;;1.83;;
3343;SDS011;1685;53.104;8.228;2023-01-16T11:58:48;3.03;;;2.00;;
3343;SDS011;1685;53.104;8.228;2023-01-16T12:01:31;6.20;;;2.10;;
3343;SDS011;1685;53.104;8.228;2023-01-16T12:04:22;1.83;;;1.77;;
3343;SDS011;1685;53.104;8.228;2023-01-16T12:06:52;3.20;;;2.00;;
3343;SDS011;1685;53.104;8.228;2023-01-16T12:12:28;3.03;;;2.83;;
3343;SDS011;1685;53.104;8.228;2023-01-16T12:15:18;3.10;;;2.90;;
3343;SDS011;1685;53.104;8.228;2023-01-16T12:18:04;2.70;;;2.10;;
3343;SDS011;1685;53.104;8.228;2023-01-16T12:20:45;5.53;;;2.50;;
3343;SDS011;1685;53.104;8.228;2023-01-16T12:23:28;2.40;;;1.97;;
3343;SDS011;1685;53.104;8.228;2023-01-16T12:26:12;3.47;;;2.20;;
3343;SDS011;1685;53.104;8.228;2023-01-16T12:28:48;7.00;;;2.17;;
3343;SDS011;1685;53.104;8.228;2023-01-16T12:31:41;4.40;;;2.83;;
3343;SDS011;1685;53.104;8.228;2023-01-16T12:34:31;2.00;;;1.90;;
3343;SDS011;1685;53.104;8.228;2023-01-16T12:37:16;3.13;;;2.20;;
3343;SDS011;1685;53.104;8.228;2023-01-16T12:39:51;3.37;;;2.30;;
3343;SDS011;1685;53.104;8.228;2023-01-16T12:42:28;1.93;;;1.83;;
3343;SDS011;1685;53.104;8.228;2023-01-16T12:45:27;3.17;;;2.73;;
3343;SDS011;1685;53.104;8.228;2023-01-16T12:48:03;4.87;;;2.20;;
3343;SDS011;1685;53.104;8.228;2023-01-16T12:50:47;2.73;;;2.60;;
3343;SDS011;1685;53.104;8.228;2023-01-16T12:53:31;2.43;;;2.23;;
3343;SDS011;1685;53.104;8.228;2023-01-16T12:59:02;2.40;;;2.20;;
3343;SDS011;1685;53.104;8.228;2023-01-16T13:01:36;4.43;;;1.67;;
3343;SDS011;1685;53.104;8.228;2023-01-16T13:04:07;2.30;;;2.10;;
3343;SDS011;1685;53.104;8.228;2023-01-16T13:06:40;3.57;;;2.13;;
3343;SDS011;1685;53.104;8.228;2023-01-16T13:09:15;4.83;;;2.30;;
3343;SDS011;1685;53.104;8.228;2023-01-16T13:11:55;9.23;;;2.10;;
3343;SDS011;1685;53.104;8.228;2023-01-16T13:14:43;3.30;;;2.47;;
3343;SDS011;1685;53.104;8.228;2023-01-16T13:17:14;8.53;;;2.23;;
3343;SDS011;1685;53.104;8.228;2023-01-16T13:19:45;6.23;;;2.77;;
3343;SDS011;1685;53.104;8.228;2023-01-16T13:22:19;9.17;;;2.50;;
3343;SDS011;1685;53.104;8.228;2023-01-16T13:24:53;3.30;;;2.40;;
3343;SDS011;1685;53.104;8.228;2023-01-16T13:27:24;1.70;;;1.60;;
3343;SDS011;1685;53.104;8.228;2023-01-16T13:29:59;2.23;;;2.10;;
3343;SDS011;1685;53.104;8.228;2023-01-16T13:32:30;7.00;;;2.10;;
3343;SDS011;1685;53.104;8.228;2023-01-16T13:35:01;10.43;;;2.57;;
3343;SDS011;1685;53.104;8.228;2023-01-16T13:37:33;2.10;;;2.00;;
3343;SDS011;1685;53.104;8.228;2023-01-16T13:40:17;2.03;;;1.93;;
3343;SDS011;1685;53.104;8.228;2023-01-16T13:42:53;2.60;;;2.10;;
3343;SDS011;1685;53.104;8.228;2023-01-16T13:45:42;4.60;;;1.90;;
3343;SDS011;1685;53.104;8.228;2023-01-16T13:48:15;2.17;;;1.60;;
3343;SDS011;1685;53.104;8.228;2023-01-16T13:50:45;1.90;;;1.60;;
3343;SDS011;1685;53.104;8.228;2023-01-16T13:53:17;2.00;;;1.90;;
3343;SDS011;1685;53.104;8.228;2023-01-16T13:55:49;6.67;;;1.73;;
3343;SDS011;1685;53.104;8.228;2023-01-16T13:58:17;6.10;;;1.90;;
3343;SDS011;1685;53.104;8.228;2023-01-16T14:00:46;5.83;;;1.67;;
3343;SDS011;1685;53.104;8.228;2023-01-16T14:03:20;2.10;;;1.77;;
3343;SDS011;1685;53.104;8.228;2023-01-16T14:05:50;1.20;;;1.20;;
3343;SDS011;1685;53.104;8.228;2023-01-16T14:08:29;1.50;;;1.40;;
3343;SDS011;1685;53.104;8.228;2023-01-16T14:11:40;4.40;;;1.60;;
3343;SDS011;1685;53.104;8.228;2023-01-16T14:20:35;1.50;;;1.40;;
3343;SDS011;1685;53.104;8.228;2023-01-16T14:23:12;1.40;;;1.27;;
3343;SDS011;1685;53.104;8.228;2023-01-16T14:26:01;1.27;;;1.27;;
3343;SDS011;1685;53.104;8.228;2023-01-16T14:28:31;3.13;;;1.50;;
3343;SDS011;1685;53.104;8.228;2023-01-16T14:30:59;1.50;;;1.40;;
3343;SDS011;1685;53.104;8.228;2023-01-16T14:33:26;1.67;;;1.57;;
3343;SDS011;1685;53.104;8.228;2023-01-16T14:35:54;1.57;;;1.27;;
3343;SDS011;1685;53.104;8.228;2023-01-16T14:38:23;1.53;;;1.23;;
3343;SDS011;1685;53.104;8.228;2023-01-16T14:40:53;1.40;;;1.30;;
3343;SDS011;1685;53.104;8.228;2023-01-16T14:44:00;1.20;;;1.20;;
3343;SDS011;1685;53.104;8.228;2023-01-16T14:47:04;1.50;;;1.40;;
3343;SDS011;1685;53.104;8.228;2023-01-16T14:49:58;1.70;;;1.60;;
3343;SDS011;1685;53.104;8.228;2023-01-16T14:52:50;2.83;;;1.57;;
3343;SDS011;1685;53.104;8.228;2023-01-16T14:55:47;2.00;;;1.37;;
3343;SDS011;1685;53.104;8.228;2023-01-16T14:58:22;1.53;;;1.53;;
3343;SDS011;1685;53.104;8.228;2023-01-16T15:00:55;4.80;;;1.90;;
3343;SDS011;1685;53.104;8.228;2023-01-16T15:03:57;1.80;;;1.70;;
3343;SDS011;1685;53.104;8.228;2023-01-16T15:06:24;2.10;;;1.43;;
3343;SDS011;1685;53.104;8.228;2023-01-16T15:08:57;1.90;;;1.70;;
3343;SDS011;1685;53.104;8.228;2023-01-16T15:11:25;2.00;;;1.90;;
3343;SDS011;1685;53.104;8.228;2023-01-16T15:14:10;3.90;;;1.80;;
3343;SDS011;1685;53.104;8.228;2023-01-16T15:16:58;3.33;;;1.80;;
3343;SDS011;1685;53.104;8.228;2023-01-16T15:19:55;2.03;;;1.70;;
3343;SDS011;1685;53.104;8.228;2023-01-16T15:22:42;2.20;;;1.97;;
3343;SDS011;1685;53.104;8.228;2023-01-16T15:25:12;3.90;;;1.77;;
3343;SDS011;1685;53.104;8.228;2023-01-16T15:27:50;3.63;;;1.90;;
3343;SDS011;1685;53.104;8.228;2023-01-16T15:30:24;3.07;;;2.33;;
3343;SDS011;1685;53.104;8.228;2023-01-16T15:32:53;2.10;;;1.70;;
3343;SDS011;1685;53.104;8.228;2023-01-16T15:35:21;2.63;;;2.03;;
3343;SDS011;1685;53.104;8.228;2023-01-16T15:37:48;5.50;;;2.10;;
3343;SDS011;1685;53.104;8.228;2023-01-16T15:40:22;2.03;;;1.93;;
3343;SDS011;1685;53.104;8.228;2023-01-16T15:42:49;2.43;;;1.67;;
3343;SDS011;1685;53.104;8.228;2023-01-16T15:45:34;1.60;;;1.50;;
3343;SDS011;1685;53.104;8.228;2023-01-16T15:48:31;3.03;;;1.70;;
3343;SDS011;1685;53.104;8.228;2023-01-16T15:51:08;2.13;;;1.90;;
3343;SDS011;1685;53.104;8.228;2023-01-16T15:53:40;1.53;;;1.53;;
3343;SDS011;1685;53.104;8.228;2023-01-16T15:56:16;2.97;;;2.07;;
3343;SDS011;1685;53.104;8.228;2023-01-16T15:58:45;1.70;;;1.60;;
3343;SDS011;1685;53.104;8.228;2023-01-16T16:01:14;6.13;;;1.80;;
3343;SDS011;1685;53.104;8.228;2023-01-16T16:03:42;5.27;;;2.03;;
3343;SDS011;1685;53.104;8.228;2023-01-16T16:06:12;1.80;;;1.70;;
3343;SDS011;1685;53.104;8.228;2023-01-16T16:08:42;2.53;;;1.83;;